Northsea Beta — 9HA2594 — position and weather

sailwx.info

Track history (hours):
 
Tides and Currents Weather Stations Pressure Air Temp Water Temp Dewpoint Dewpoint Depression Visibility Wind Speed Wind Dir Waves Ship Positions

Northsea Beta

Last reported at 2017-Oct-19 09:04 UTC. Time now 2017-Oct-22 23:10 UTC.
Position N 35°57' W 005°32'.

Length 110 m; draft 7.5 m.

Type: Tanker. MMSI: 248970000.

Date/timePositionNaut miles runAvg speedWind from/ knotsBaromVisibWave heightAir tempDewpointWater temp
2017-Oct-19 09:04N 35°57' W 005°32'2 8.2
2017-Oct-19 08:51N 35°58' W 005°30'2 0.1
2017-Oct-18 09:27N 35°57' W 005°33'4 8.6
2017-Oct-18 09:00N 35°59' W 005°29'4 8.6
2017-Oct-18 08:30N 35°60' W 005°24'4 8.5
2017-Oct-18 08:00N 35°60' W 005°18'4 8.9
2017-Oct-18 07:30N 35°55' W 005°18'2 3.2
2017-Oct-18 06:58N 35°54' W 005°19'0 0.0
2017-Oct-18 06:28N 35°54' W 005°19'0 0.0
2017-Oct-18 05:58N 35°54' W 005°19'0 0.0
2017-Oct-18 05:28N 35°54' W 005°19'0 0.0
2017-Oct-18 04:55N 35°54' W 005°19'0 0.0
2017-Oct-18 04:28N 35°54' W 005°19'0 0.0
2017-Oct-18 03:58N 35°54' W 005°19'0 0.0
2017-Oct-18 03:28N 35°54' W 005°19'0 0.0
2017-Oct-18 02:58N 35°54' W 005°19'0 0.0
2017-Oct-18 02:28N 35°54' W 005°19'0 0.0
2017-Oct-18 01:58N 35°54' W 005°19'0 0.0
2017-Oct-18 01:28N 35°54' W 005°19'0 0.0
2017-Oct-18 00:58N 35°54' W 005°19'0 0.0
2017-Oct-18 00:28N 35°54' W 005°19'1 2.2
2017-Oct-18 00:00N 35°55' W 005°18'3 6.9
2017-Oct-17 23:30N 35°57' W 005°15'22511.0
2017-Oct-17 03:02N 37°20' W 000°54'211.2
2017-Oct-17 02:50N 37°21' W 000°52'411.0
2017-Oct-17 02:30N 37°24' W 000°49'1411.6
2017-Oct-17 01:18N 37°33' W 000°36'411.8
2017-Oct-17 00:59N 37°36' W 000°32'611.8
2017-Oct-17 00:30N 37°40' W 000°28'37411.4
2017-Oct-15 15:44N 42°37' E 004°29'311.6
2017-Oct-15 15:30N 42°40' E 004°31'611.6
2017-Oct-15 14:57N 42°45' E 004°36'1211.4
2017-Oct-15 13:54N 42°55' E 004°45'911.4
2017-Oct-15 13:07N 43°02' E 004°52'211.2
2017-Oct-15 12:55N 43°04' E 004°54'1310.2
2017-Oct-15 11:37N 43°17' E 004°59'211.4
2017-Oct-15 11:27N 43°19' E 004°59'4 9.1
2017-Oct-15 11:00N 43°23' E 004°58'2 0.4
2017-Oct-15 06:57N 43°24' E 004°60'0 0.0
2017-Oct-15 04:57N 43°24' E 004°60'0 0.0
2017-Oct-15 04:27N 43°24' E 004°60'0 0.0
2017-Oct-15 03:59N 43°24' E 004°60'0 0.0
2017-Oct-15 03:30N 43°24' E 004°60'0 0.0
2017-Oct-15 02:57N 43°24' E 004°60'0 0.0
2017-Oct-15 02:09N 43°24' E 004°60'0 0.0
2017-Oct-15 01:42N 43°24' E 004°60'0 0.0
2017-Oct-14 23:53N 43°24' E 004°60'0 0.0
2017-Oct-14 23:30N 43°24' E 004°60'0 0.0
2017-Oct-14 23:00N 43°24' E 004°60'0 0.0
2017-Oct-14 22:27N 43°24' E 004°60'0 0.2
2017-Oct-14 22:00N 43°24' E 004°60'2 4.0
2017-Oct-14 21:28N 43°24' E 004°57'0 0.3
2017-Oct-14 21:00N 43°24' E 004°57'0 0.0
2017-Oct-14 16:51N 43°24' E 004°57'0 0.0
2017-Oct-14 15:51N 43°24' E 004°57'0 0.0
2017-Oct-14 15:24N 43°24' E 004°57'0 0.0
2017-Oct-14 14:15N 43°24' E 004°57'0 0.0
2017-Oct-14 13:57N 43°24' E 004°57'0 0.0
2017-Oct-14 13:30N 43°24' E 004°57'0 0.0
2017-Oct-14 12:57N 43°24' E 004°57'0 0.0
2017-Oct-14 12:24N 43°24' E 004°57'0 0.0
2017-Oct-14 10:42N 43°24' E 004°57'0 0.0
2017-Oct-14 10:30N 43°24' E 004°57'0 0.0
2017-Oct-14 09:51N 43°24' E 004°57'0 0.0
2017-Oct-14 09:27N 43°24' E 004°57'0 0.0
2017-Oct-14 09:00N 43°24' E 004°57'0 0.0
2017-Oct-14 07:42N 43°24' E 004°57'0 0.1
2017-Oct-14 07:30N 43°24' E 004°57'0 0.0
2017-Oct-14 05:39N 43°24' E 004°57'3 0.3
2017-Oct-13 21:10N 43°25' E 004°53'0 1.0
2017-Oct-13 20:57N 43°25' E 004°53'3 0.7
2017-Oct-13 16:21N 43°24' E 004°57'2 4.8
2017-Oct-13 16:00N 43°24' E 004°60'0 0.0
2017-Oct-13 15:28N 43°24' E 004°59'0 0.0
2017-Oct-13 14:58N 43°24' E 004°59'0 0.0
2017-Oct-13 14:28N 43°24' E 004°59'0 0.0
2017-Oct-13 13:55N 43°24' E 004°59'0 0.0
2017-Oct-13 13:28N 43°24' E 004°59'0 0.0
2017-Oct-13 12:58N 43°24' E 004°59'0 0.0
2017-Oct-13 12:25N 43°24' E 004°60'0 0.0
2017-Oct-13 11:58N 43°24' E 004°59'0 0.0
2017-Oct-13 11:28N 43°24' E 004°59'0 0.0
2017-Oct-13 10:58N 43°24' E 004°59'0 0.0
2017-Oct-13 10:19N 43°24' E 004°59'0 0.0
2017-Oct-13 09:58N 43°24' E 004°60'0 0.0
2017-Oct-13 09:28N 43°24' E 004°59'0 0.0
2017-Oct-13 08:58N 43°24' E 004°59'0 0.0
2017-Oct-13 08:28N 43°24' E 004°60'0 0.0
2017-Oct-13 07:55N 43°24' E 004°60'0 0.0
2017-Oct-13 07:19N 43°24' E 004°59'0 0.0
2017-Oct-13 06:55N 43°24' E 004°59'0 0.0
2017-Oct-13 06:19N 43°24' E 004°59'0 0.0
2017-Oct-13 05:55N 43°24' E 004°59'0 0.0
2017-Oct-13 05:19N 43°24' E 004°59'0 0.0
2017-Oct-13 04:55N 43°24' E 004°59'0 0.0
2017-Oct-13 04:28N 43°24' E 004°59'0 0.0
2017-Oct-13 03:55N 43°24' E 004°59'0 0.0
2017-Oct-13 03:22N 43°24' E 004°59'0 0.0
2017-Oct-13 02:58N 43°24' E 004°59'0 0.0
2017-Oct-13 02:25N 43°24' E 004°59'0 0.0
2017-Oct-13 01:58N 43°24' E 004°59'0 0.0
2017-Oct-13 01:25N 43°24' E 004°60'0 0.0
2017-Oct-13 00:55N 43°24' E 004°59'0 0.2
2017-Oct-13 00:28N 43°24' E 004°59'1 2.1
2017-Oct-12 23:59N 43°23' E 004°58'0 0.0
2017-Oct-12 23:26N 43°23' E 004°58'0 0.0
2017-Oct-12 22:59N 43°23' E 004°58'0 0.0
2017-Oct-12 22:29N 43°23' E 004°58'0 0.0
2017-Oct-12 21:59N 43°23' E 004°58'0 0.0
2017-Oct-12 21:29N 43°23' E 004°58'0 0.0
2017-Oct-12 20:56N 43°23' E 004°58'0 0.1
2017-Oct-12 20:26N 43°23' E 004°58'0 0.0
2017-Oct-12 19:56N 43°23' E 004°58'0 0.0
2017-Oct-12 19:22N 43°23' E 004°58'0 0.0
2017-Oct-12 18:56N 43°23' E 004°58'0 0.0
2017-Oct-12 18:20N 43°23' E 004°58'0 0.0
2017-Oct-12 17:59N 43°23' E 004°58'0 0.0
2017-Oct-12 17:25N 43°23' E 004°58'0 0.0
2017-Oct-12 16:53N 43°23' E 004°58'0 0.0
2017-Oct-12 16:29N 43°23' E 004°58'0 0.1
2017-Oct-12 15:56N 43°23' E 004°58'3 6.6
2017-Oct-12 15:30N 43°21' E 004°59'5 9.2
2017-Oct-12 15:00N 43°16' E 005°01'5 9.8
2017-Oct-12 14:30N 43°11' E 005°02'5 9.7
2017-Oct-12 14:00N 43°10' E 004°56'510.3
2017-Oct-12 13:31N 43°09' E 004°49'510.4
2017-Oct-12 13:01N 43°09' E 004°42'510.3
2017-Oct-12 12:30N 43°08' E 004°35'510.4
2017-Oct-12 12:01N 43°07' E 004°28'  
Track history (hours):
 
Tides and Currents Weather Stations Pressure Air Temp Water Temp Dewpoint Dewpoint Depression Visibility Wind Speed Wind Dir Waves Ship Positions

Northsea Beta

Last reported at 2017-Oct-19 09:04 UTC. Time now 2017-Oct-22 23:10 UTC.
Position N 35°57' W 005°32'.

Length 110 m; draft 7.5 m.

Type: Tanker. MMSI: 248970000.

Date/timePositionNaut miles runAvg speedWind from/ knotsBaromVisibWave heightAir tempDewpointWater temp
2017-Oct-19 09:04N 35°57' W 005°32'2 8.2
2017-Oct-19 08:51N 35°58' W 005°30'2 0.1
2017-Oct-18 09:27N 35°57' W 005°33'4 8.6
2017-Oct-18 09:00N 35°59' W 005°29'4 8.6
2017-Oct-18 08:30N 35°60' W 005°24'4 8.5
2017-Oct-18 08:00N 35°60' W 005°18'4 8.9
2017-Oct-18 07:30N 35°55' W 005°18'2 3.2
2017-Oct-18 06:58N 35°54' W 005°19'0 0.0
2017-Oct-18 06:28N 35°54' W 005°19'0 0.0
2017-Oct-18 05:58N 35°54' W 005°19'0 0.0
2017-Oct-18 05:28N 35°54' W 005°19'0 0.0
2017-Oct-18 04:55N 35°54' W 005°19'0 0.0
2017-Oct-18 04:28N 35°54' W 005°19'0 0.0
2017-Oct-18 03:58N 35°54' W 005°19'0 0.0
2017-Oct-18 03:28N 35°54' W 005°19'0 0.0
2017-Oct-18 02:58N 35°54' W 005°19'0 0.0
2017-Oct-18 02:28N 35°54' W 005°19'0 0.0
2017-Oct-18 01:58N 35°54' W 005°19'0 0.0
2017-Oct-18 01:28N 35°54' W 005°19'0 0.0
2017-Oct-18 00:58N 35°54' W 005°19'0 0.0
2017-Oct-18 00:28N 35°54' W 005°19'1 2.2
2017-Oct-18 00:00N 35°55' W 005°18'3 6.9
2017-Oct-17 23:30N 35°57' W 005°15'22511.0
2017-Oct-17 03:02N 37°20' W 000°54'211.2
2017-Oct-17 02:50N 37°21' W 000°52'411.0
2017-Oct-17 02:30N 37°24' W 000°49'1411.6
2017-Oct-17 01:18N 37°33' W 000°36'411.8
2017-Oct-17 00:59N 37°36' W 000°32'611.8
2017-Oct-17 00:30N 37°40' W 000°28'37411.4
2017-Oct-15 15:44N 42°37' E 004°29'311.6
2017-Oct-15 15:30N 42°40' E 004°31'611.6
2017-Oct-15 14:57N 42°45' E 004°36'1211.4
2017-Oct-15 13:54N 42°55' E 004°45'911.4
2017-Oct-15 13:07N 43°02' E 004°52'211.2
2017-Oct-15 12:55N 43°04' E 004°54'1310.2
2017-Oct-15 11:37N 43°17' E 004°59'211.4
2017-Oct-15 11:27N 43°19' E 004°59'4 9.1
2017-Oct-15 11:00N 43°23' E 004°58'2 0.4
2017-Oct-15 06:57N 43°24' E 004°60'0 0.0
2017-Oct-15 04:57N 43°24' E 004°60'0 0.0
2017-Oct-15 04:27N 43°24' E 004°60'0 0.0
2017-Oct-15 03:59N 43°24' E 004°60'0 0.0
2017-Oct-15 03:30N 43°24' E 004°60'0 0.0
2017-Oct-15 02:57N 43°24' E 004°60'0 0.0
2017-Oct-15 02:09N 43°24' E 004°60'0 0.0
2017-Oct-15 01:42N 43°24' E 004°60'0 0.0
2017-Oct-14 23:53N 43°24' E 004°60'0 0.0
2017-Oct-14 23:30N 43°24' E 004°60'0 0.0
2017-Oct-14 23:00N 43°24' E 004°60'0 0.0
2017-Oct-14 22:27N 43°24' E 004°60'0 0.2
2017-Oct-14 22:00N 43°24' E 004°60'2 4.0
2017-Oct-14 21:28N 43°24' E 004°57'0 0.3
2017-Oct-14 21:00N 43°24' E 004°57'0 0.0
2017-Oct-14 16:51N 43°24' E 004°57'0 0.0
2017-Oct-14 15:51N 43°24' E 004°57'0 0.0
2017-Oct-14 15:24N 43°24' E 004°57'0 0.0
2017-Oct-14 14:15N 43°24' E 004°57'0 0.0
2017-Oct-14 13:57N 43°24' E 004°57'0 0.0
2017-Oct-14 13:30N 43°24' E 004°57'0 0.0
2017-Oct-14 12:57N 43°24' E 004°57'0 0.0
2017-Oct-14 12:24N 43°24' E 004°57'0 0.0
2017-Oct-14 10:42N 43°24' E 004°57'0 0.0
2017-Oct-14 10:30N 43°24' E 004°57'0 0.0
2017-Oct-14 09:51N 43°24' E 004°57'0 0.0
2017-Oct-14 09:27N 43°24' E 004°57'0 0.0
2017-Oct-14 09:00N 43°24' E 004°57'0 0.0
2017-Oct-14 07:42N 43°24' E 004°57'0 0.1
2017-Oct-14 07:30N 43°24' E 004°57'0 0.0
2017-Oct-14 05:39N 43°24' E 004°57'3 0.3
2017-Oct-13 21:10N 43°25' E 004°53'0 1.0
2017-Oct-13 20:57N 43°25' E 004°53'3 0.7
2017-Oct-13 16:21N 43°24' E 004°57'2 4.8
2017-Oct-13 16:00N 43°24' E 004°60'0 0.0
2017-Oct-13 15:28N 43°24' E 004°59'0 0.0
2017-Oct-13 14:58N 43°24' E 004°59'0 0.0
2017-Oct-13 14:28N 43°24' E 004°59'0 0.0
2017-Oct-13 13:55N 43°24' E 004°59'0 0.0
2017-Oct-13 13:28N 43°24' E 004°59'0 0.0
2017-Oct-13 12:58N 43°24' E 004°59'0 0.0
2017-Oct-13 12:25N 43°24' E 004°60'0 0.0
2017-Oct-13 11:58N 43°24' E 004°59'0 0.0
2017-Oct-13 11:28N 43°24' E 004°59'0 0.0
2017-Oct-13 10:58N 43°24' E 004°59'0 0.0
2017-Oct-13 10:19N 43°24' E 004°59'0 0.0
2017-Oct-13 09:58N 43°24' E 004°60'0 0.0
2017-Oct-13 09:28N 43°24' E 004°59'0 0.0
2017-Oct-13 08:58N 43°24' E 004°59'0 0.0
2017-Oct-13 08:28N 43°24' E 004°60'0 0.0
2017-Oct-13 07:55N 43°24' E 004°60'0 0.0
2017-Oct-13 07:19N 43°24' E 004°59'0 0.0
2017-Oct-13 06:55N 43°24' E 004°59'0 0.0
2017-Oct-13 06:19N 43°24' E 004°59'0 0.0
2017-Oct-13 05:55N 43°24' E 004°59'0 0.0
2017-Oct-13 05:19N 43°24' E 004°59'0 0.0
2017-Oct-13 04:55N 43°24' E 004°59'0 0.0
2017-Oct-13 04:28N 43°24' E 004°59'0 0.0
2017-Oct-13 03:55N 43°24' E 004°59'0 0.0
2017-Oct-13 03:22N 43°24' E 004°59'0 0.0
2017-Oct-13 02:58N 43°24' E 004°59'0 0.0
2017-Oct-13 02:25N 43°24' E 004°59'0 0.0
2017-Oct-13 01:58N 43°24' E 004°59'0 0.0
2017-Oct-13 01:25N 43°24' E 004°60'0 0.0
2017-Oct-13 00:55N 43°24' E 004°59'0 0.2
2017-Oct-13 00:28N 43°24' E 004°59'1 2.1
2017-Oct-12 23:59N 43°23' E 004°58'0 0.0
2017-Oct-12 23:26N 43°23' E 004°58'0 0.0
2017-Oct-12 22:59N 43°23' E 004°58'0 0.0
2017-Oct-12 22:29N 43°23' E 004°58'0 0.0
2017-Oct-12 21:59N 43°23' E 004°58'0 0.0
2017-Oct-12 21:29N 43°23' E 004°58'0 0.0
2017-Oct-12 20:56N 43°23' E 004°58'0 0.1
2017-Oct-12 20:26N 43°23' E 004°58'0 0.0
2017-Oct-12 19:56N 43°23' E 004°58'0 0.0
2017-Oct-12 19:22N 43°23' E 004°58'0 0.0
2017-Oct-12 18:56N 43°23' E 004°58'0 0.0
2017-Oct-12 18:20N 43°23' E 004°58'0 0.0
2017-Oct-12 17:59N 43°23' E 004°58'0 0.0
2017-Oct-12 17:25N 43°23' E 004°58'0 0.0
2017-Oct-12 16:53N 43°23' E 004°58'0 0.0
2017-Oct-12 16:29N 43°23' E 004°58'0 0.1
2017-Oct-12 15:56N 43°23' E 004°58'3 6.6
2017-Oct-12 15:30N 43°21' E 004°59'5 9.2
2017-Oct-12 15:00N 43°16' E 005°01'5 9.8
2017-Oct-12 14:30N 43°11' E 005°02'5 9.7
2017-Oct-12 14:00N 43°10' E 004°56'510.3
2017-Oct-12 13:31N 43°09' E 004°49'510.4
2017-Oct-12 13:01N 43°09' E 004°42'510.3
2017-Oct-12 12:30N 43°08' E 004°35'510.4
2017-Oct-12 12:01N 43°07' E 004°28'  

Dump ship's entire track history